createdAt,value
2023-05-05T00:00:04.675Z,19.8
2023-05-05T00:00:34.596Z,19.78
2023-05-05T00:01:04.594Z,19.72
2023-05-05T00:01:34.596Z,19.7
2023-05-05T00:02:04.647Z,19.7
2023-05-05T00:02:34.722Z,19.72
2023-05-05T00:03:04.696Z,19.75
2023-05-05T00:03:34.656Z,19.75
2023-05-05T00:04:04.652Z,19.74
2023-05-05T00:04:34.587Z,19.75
2023-05-05T00:05:04.593Z,19.71
2023-05-05T00:05:34.590Z,19.66
2023-05-05T00:06:04.595Z,19.63
2023-05-05T00:06:34.592Z,19.57
2023-05-05T00:07:04.596Z,19.52
2023-05-05T00:07:34.589Z,19.48
2023-05-05T00:08:04.601Z,19.47
2023-05-05T00:08:34.596Z,19.51
2023-05-05T00:09:04.601Z,19.54
2023-05-05T00:09:34.596Z,19.56
2023-05-05T00:10:04.614Z,19.57
2023-05-05T00:10:34.591Z,19.55
2023-05-05T00:11:04.607Z,19.55
2023-05-05T00:11:34.612Z,19.54
2023-05-05T00:12:04.609Z,19.55
2023-05-05T00:12:34.609Z,19.57
2023-05-05T00:13:04.634Z,19.58
2023-05-05T00:13:34.601Z,19.59
2023-05-05T00:14:04.602Z,19.61
2023-05-05T00:14:34.608Z,19.62
2023-05-05T00:15:04.595Z,19.61
2023-05-05T00:15:34.592Z,19.57
2023-05-05T00:16:04.598Z,19.54
2023-05-05T00:16:34.608Z,19.53
2023-05-05T00:17:04.629Z,19.52
2023-05-05T00:17:34.648Z,19.5
2023-05-05T00:18:04.671Z,19.5
2023-05-05T00:18:34.606Z,19.51
2023-05-05T00:19:04.610Z,19.5
2023-05-05T00:19:34.615Z,19.48
2023-05-05T00:20:04.613Z,19.49
2023-05-05T00:20:34.598Z,19.48
2023-05-05T00:21:04.605Z,19.45
2023-05-05T00:21:34.596Z,19.44
2023-05-05T00:22:04.612Z,19.46
2023-05-05T00:22:34.592Z,19.49
2023-05-05T00:23:04.597Z,19.53
2023-05-05T00:23:34.599Z,19.52
2023-05-05T00:24:04.600Z,19.48
2023-05-05T00:24:34.601Z,19.46
2023-05-05T00:25:04.636Z,19.46
2023-05-05T00:25:34.602Z,19.48
2023-05-05T00:26:04.600Z,19.51
2023-05-05T00:26:34.598Z,19.54
2023-05-05T00:27:04.596Z,19.55
2023-05-05T00:27:34.600Z,19.57
2023-05-05T00:28:04.596Z,19.58
2023-05-05T00:28:34.610Z,19.57
2023-05-05T00:29:04.600Z,19.55
2023-05-05T00:29:34.593Z,19.54
2023-05-05T00:30:04.599Z,19.55
2023-05-05T00:30:34.622Z,19.57
2023-05-05T00:31:04.622Z,19.56
2023-05-05T00:31:34.699Z,19.54
2023-05-05T00:32:04.620Z,19.5
2023-05-05T00:32:34.633Z,19.46
2023-05-05T00:33:04.679Z,19.41
2023-05-05T00:33:34.613Z,19.39
2023-05-05T00:34:04.607Z,19.37
2023-05-05T00:34:34.602Z,19.36
2023-05-05T00:35:04.629Z,19.35
2023-05-05T00:35:34.629Z,19.33
2023-05-05T00:36:04.603Z,19.33
2023-05-05T00:36:34.601Z,19.33
2023-05-05T00:37:04.607Z,19.29
2023-05-05T00:37:34.603Z,19.28
2023-05-05T00:38:04.608Z,19.32
2023-05-05T00:38:34.608Z,19.35
2023-05-05T00:39:04.611Z,19.35
2023-05-05T00:39:34.601Z,19.37
2023-05-05T00:40:04.645Z,19.39
2023-05-05T00:40:34.627Z,19.39
2023-05-05T00:41:04.602Z,19.35
2023-05-05T00:41:34.606Z,19.37
2023-05-05T00:42:04.609Z,19.43
2023-05-05T00:42:34.612Z,19.47
2023-05-05T00:43:04.614Z,19.53
2023-05-05T00:43:34.614Z,19.56
2023-05-05T00:44:04.612Z,19.59
2023-05-05T00:44:34.607Z,19.63
2023-05-05T00:45:04.607Z,19.68
2023-05-05T00:45:34.603Z,19.72
2023-05-05T00:46:04.671Z,19.76
2023-05-05T00:46:34.635Z,19.8
2023-05-05T00:47:04.620Z,19.83
2023-05-05T00:47:34.674Z,19.82
2023-05-05T00:48:04.728Z,19.81
2023-05-05T00:48:34.622Z,19.8
2023-05-05T00:49:04.647Z,19.81
2023-05-05T00:49:34.701Z,19.83
2023-05-05T00:50:04.655Z,19.79
2023-05-05T00:50:34.610Z,19.75
2023-05-05T00:51:04.613Z,19.75
2023-05-05T00:51:34.624Z,19.74
2023-05-05T00:52:04.627Z,19.75
2023-05-05T00:52:34.618Z,19.73
2023-05-05T00:53:04.616Z,19.69
2023-05-05T00:53:34.614Z,19.63
2023-05-05T00:54:04.610Z,19.57
2023-05-05T00:54:34.617Z,19.53
2023-05-05T00:55:04.613Z,19.53
2023-05-05T00:55:34.610Z,19.53
2023-05-05T00:56:04.621Z,19.52
2023-05-05T00:56:34.616Z,19.49
2023-05-05T00:57:04.628Z,19.45
2023-05-05T00:57:34.614Z,19.38
2023-05-05T00:58:04.622Z,19.38
2023-05-05T00:58:34.614Z,19.43
2023-05-05T00:59:04.614Z,19.51
2023-05-05T00:59:34.637Z,19.57
2023-05-05T01:00:04.625Z,19.62
2023-05-05T01:00:34.618Z,19.65
2023-05-05T01:01:04.616Z,19.68
2023-05-05T01:01:34.628Z,19.67
2023-05-05T01:02:04.703Z,19.68
2023-05-05T01:02:34.662Z,19.67
2023-05-05T01:03:04.680Z,19.61
2023-05-05T01:03:34.702Z,19.55
2023-05-05T01:04:04.712Z,19.54
2023-05-05T01:04:34.627Z,19.55
2023-05-05T01:05:04.620Z,19.58
2023-05-05T01:05:34.620Z,19.6
2023-05-05T01:06:04.621Z,19.61
2023-05-05T01:06:34.661Z,19.55
2023-05-05T01:07:04.615Z,19.53
2023-05-05T01:07:34.612Z,19.5
2023-05-05T01:08:04.644Z,19.44
2023-05-05T01:08:34.612Z,19.4
2023-05-05T01:09:04.614Z,19.4
2023-05-05T01:09:34.612Z,19.45
2023-05-05T01:10:18.133Z,19.49
2023-05-05T01:10:35.615Z,19.46
2023-05-05T01:11:04.617Z,19.41
2023-05-05T01:11:34.616Z,19.37
2023-05-05T01:12:04.620Z,19.31
2023-05-05T01:12:34.632Z,19.3
2023-05-05T01:13:04.710Z,19.37
2023-05-05T01:13:34.621Z,19.44
2023-05-05T01:14:04.611Z,19.53
2023-05-05T01:14:34.623Z,19.63
2023-05-05T01:15:04.617Z,19.61
2023-05-05T01:15:34.623Z,19.62
2023-05-05T01:16:04.627Z,19.61
2023-05-05T01:16:34.673Z,19.62
2023-05-05T01:17:04.620Z,19.65
2023-05-05T01:17:34.636Z,19.62
2023-05-05T01:18:04.633Z,19.6
2023-05-05T01:18:34.623Z,19.62
2023-05-05T01:19:04.614Z,19.61
2023-05-05T01:19:34.622Z,19.6
2023-05-05T01:20:04.618Z,19.47
2023-05-05T01:20:34.613Z,19.45
2023-05-05T01:21:04.618Z,19.47
2023-05-05T01:21:34.626Z,19.5
2023-05-05T01:22:04.616Z,19.46
2023-05-05T01:22:34.625Z,19.39
2023-05-05T01:23:04.613Z,19.36
2023-05-05T01:23:34.613Z,19.35
2023-05-05T01:24:04.625Z,19.4
2023-05-05T01:24:34.626Z,19.47
2023-05-05T01:25:04.621Z,19.52
2023-05-05T01:25:34.628Z,19.6
2023-05-05T01:26:04.624Z,19.68
2023-05-05T01:26:34.623Z,19.74
2023-05-05T01:27:04.639Z,19.75
2023-05-05T01:27:34.634Z,19.78
2023-05-05T01:28:04.625Z,19.77
2023-05-05T01:28:34.627Z,19.75
2023-05-05T01:29:04.616Z,19.74
2023-05-05T01:29:34.627Z,19.69
2023-05-05T01:30:04.639Z,19.64
2023-05-05T01:30:34.626Z,19.62
2023-05-05T01:31:04.617Z,19.62
2023-05-05T01:31:34.669Z,19.64
2023-05-05T01:32:04.644Z,19.58
2023-05-05T01:32:34.652Z,19.5
2023-05-05T01:33:04.622Z,19.42
2023-05-05T01:33:34.647Z,19.38
2023-05-05T01:34:04.631Z,19.28
2023-05-05T01:34:34.643Z,19.21
2023-05-05T01:35:04.622Z,19.15
2023-05-05T01:35:34.626Z,19.1
2023-05-05T01:36:04.623Z,19.05
2023-05-05T01:36:34.622Z,19.05
2023-05-05T01:37:04.689Z,19.02
2023-05-05T01:37:34.621Z,19.04
2023-05-05T01:38:04.622Z,19.07
2023-05-05T01:38:34.620Z,19.07
2023-05-05T01:39:04.620Z,19.05
2023-05-05T01:39:34.624Z,19.06
2023-05-05T01:40:04.743Z,19.05
2023-05-05T01:40:34.619Z,19.06
2023-05-05T01:41:04.623Z,19.11
2023-05-05T01:41:34.636Z,19.15
2023-05-05T01:42:04.619Z,19.2
2023-05-05T01:42:34.617Z,19.14
2023-05-05T01:43:04.636Z,19.07
2023-05-05T01:43:34.631Z,19.06
2023-05-05T01:44:04.620Z,18.99
2023-05-05T01:44:34.631Z,18.91
2023-05-05T01:45:04.621Z,18.81
2023-05-05T01:45:34.676Z,18.83
2023-05-05T01:46:04.652Z,18.9
2023-05-05T01:46:34.623Z,19.02
2023-05-05T01:47:04.624Z,19.14
2023-05-05T01:47:34.659Z,19.25
2023-05-05T01:48:04.672Z,19.36
2023-05-05T01:48:34.623Z,19.45
2023-05-05T01:49:04.629Z,19.54
2023-05-05T01:49:34.627Z,19.54
2023-05-05T01:50:04.636Z,19.52
2023-05-05T01:50:34.622Z,19.4
2023-05-05T01:51:04.625Z,19.35
2023-05-05T01:51:34.625Z,19.34
2023-05-05T01:52:04.625Z,19.28
2023-05-05T01:52:34.625Z,19.21
2023-05-05T01:53:04.634Z,19.22
2023-05-05T01:53:34.623Z,19.28
2023-05-05T01:54:04.623Z,19.28
2023-05-05T01:54:34.628Z,19.25
2023-05-05T01:55:04.619Z,19.18
2023-05-05T01:55:34.620Z,19.13
2023-05-05T01:56:04.632Z,19.04
2023-05-05T01:56:34.624Z,19.02
2023-05-05T01:57:04.623Z,19.04
2023-05-05T01:57:34.631Z,19.1
2023-05-05T01:58:04.628Z,19.16
2023-05-05T01:58:34.627Z,19.21
2023-05-05T01:59:04.635Z,19.24
2023-05-05T01:59:34.624Z,19.21
2023-05-05T02:00:04.702Z,19.14
2023-05-05T02:00:34.636Z,19.09
2023-05-05T02:01:04.694Z,19.05
2023-05-05T02:01:34.699Z,19.07
2023-05-05T02:02:04.630Z,19
2023-05-05T02:02:34.711Z,18.93
2023-05-05T02:03:04.739Z,18.9
2023-05-05T02:03:34.710Z,18.83
2023-05-05T02:04:04.624Z,18.77
2023-05-05T02:04:34.633Z,18.71
2023-05-05T02:05:04.667Z,18.69
2023-05-05T02:05:34.634Z,18.63
2023-05-05T02:06:04.627Z,18.6
2023-05-05T02:06:34.635Z,18.64
2023-05-05T02:07:04.629Z,18.62
2023-05-05T02:07:34.642Z,18.59
2023-05-05T02:08:04.622Z,18.56
2023-05-05T02:08:34.625Z,18.57
2023-05-05T02:09:04.626Z,18.63
2023-05-05T02:09:34.632Z,18.67
2023-05-05T02:10:04.696Z,18.66
2023-05-05T02:10:34.629Z,18.61
2023-05-05T02:11:04.629Z,18.59
2023-05-05T02:11:34.628Z,18.57
2023-05-05T02:12:04.629Z,18.57
2023-05-05T02:12:34.650Z,18.61
2023-05-05T02:13:04.718Z,18.62
2023-05-05T02:13:34.676Z,18.63
2023-05-05T02:14:04.688Z,18.64
2023-05-05T02:14:34.634Z,18.69
2023-05-05T02:15:04.642Z,18.69
2023-05-05T02:15:34.651Z,18.75
2023-05-05T02:16:04.661Z,18.81
2023-05-05T02:16:34.633Z,18.85
2023-05-05T02:17:04.631Z,18.78
2023-05-05T02:17:34.646Z,18.65
2023-05-05T02:18:04.677Z,18.55
2023-05-05T02:18:34.630Z,18.5
2023-05-05T02:19:04.643Z,18.38
2023-05-05T02:19:34.647Z,18.31
2023-05-05T02:20:04.697Z,18.3
2023-05-05T02:20:34.631Z,18.31
2023-05-05T02:21:04.626Z,18.37
2023-05-05T02:21:34.631Z,18.47
2023-05-05T02:22:04.632Z,18.5
2023-05-05T02:22:34.637Z,18.55
2023-05-05T02:23:04.645Z,18.68
2023-05-05T02:23:34.630Z,18.79
2023-05-05T02:24:04.632Z,18.87
2023-05-05T02:24:34.639Z,18.97
2023-05-05T02:25:04.646Z,19.08
2023-05-05T02:25:34.641Z,19.17
2023-05-05T02:26:04.654Z,19.18
2023-05-05T02:26:34.638Z,19.16
2023-05-05T02:27:04.643Z,19.21
2023-05-05T02:27:34.630Z,19.26
2023-05-05T02:28:04.640Z,19.33
2023-05-05T02:28:34.646Z,19.38
2023-05-05T02:29:04.644Z,19.33
2023-05-05T02:29:34.645Z,19.21
2023-05-05T02:30:04.649Z,19.16
2023-05-05T02:30:34.655Z,19.1
2023-05-05T02:31:04.724Z,19.09
2023-05-05T02:31:34.669Z,19.09
2023-05-05T02:32:04.643Z,19.05
2023-05-05T02:32:34.671Z,19.01
2023-05-05T02:33:04.720Z,18.93
2023-05-05T02:33:34.635Z,18.87
2023-05-05T02:34:04.638Z,18.84
2023-05-05T02:34:34.640Z,18.88
2023-05-05T02:35:04.642Z,18.88
2023-05-05T02:35:34.641Z,18.88
2023-05-05T02:36:04.649Z,18.89
2023-05-05T02:36:34.637Z,18.92
2023-05-05T02:37:04.638Z,18.98
2023-05-05T02:37:34.642Z,19
2023-05-05T02:38:04.645Z,18.9
2023-05-05T02:38:34.647Z,18.89
2023-05-05T02:39:04.685Z,18.91
2023-05-05T02:39:34.652Z,18.92
2023-05-05T02:40:04.702Z,18.87
2023-05-05T02:40:34.645Z,18.87
2023-05-05T02:41:04.644Z,18.9
2023-05-05T02:41:34.646Z,18.98
2023-05-05T02:42:04.645Z,19.03
2023-05-05T02:42:34.637Z,19.05
2023-05-05T02:43:04.683Z,18.97
2023-05-05T02:43:34.641Z,18.88
2023-05-05T02:44:04.640Z,18.81
2023-05-05T02:44:34.646Z,18.77
2023-05-05T02:45:04.638Z,18.72
2023-05-05T02:45:34.644Z,18.69
2023-05-05T02:46:04.668Z,18.66
2023-05-05T02:46:34.735Z,18.58
2023-05-05T02:47:04.640Z,18.54
2023-05-05T02:47:34.682Z,18.52
2023-05-05T02:48:04.677Z,18.57
2023-05-05T02:48:34.668Z,18.54
2023-05-05T02:49:04.639Z,18.51
2023-05-05T02:49:34.647Z,18.51
2023-05-05T02:50:04.643Z,18.61
2023-05-05T02:50:34.643Z,18.75
2023-05-05T02:51:04.641Z,18.89
2023-05-05T02:51:34.644Z,18.98
2023-05-05T02:52:04.639Z,18.99
2023-05-05T02:52:34.650Z,18.97
2023-05-05T02:53:04.647Z,18.95
2023-05-05T02:53:34.638Z,18.97
2023-05-05T02:54:04.648Z,19.05
2023-05-05T02:54:34.645Z,19.11
2023-05-05T02:55:04.644Z,19.15
2023-05-05T02:55:34.654Z,19.18
2023-05-05T02:56:04.646Z,19.24
2023-05-05T02:56:34.641Z,19.25
2023-05-05T02:57:04.650Z,19.19
2023-05-05T02:57:34.642Z,19.16
2023-05-05T02:58:04.643Z,19.01
2023-05-05T02:58:34.648Z,18.88
2023-05-05T02:59:04.646Z,18.76
2023-05-05T02:59:34.649Z,18.72
2023-05-05T03:00:04.718Z,18.7
2023-05-05T03:00:34.641Z,18.7
2023-05-05T03:01:04.716Z,18.78
2023-05-05T03:01:34.688Z,18.9
2023-05-05T03:02:04.647Z,18.74
2023-05-05T03:02:34.715Z,18.6
2023-05-05T03:03:04.750Z,18.57
2023-05-05T03:03:34.764Z,18.65
2023-05-05T03:04:04.647Z,18.75
2023-05-05T03:04:34.649Z,18.89
2023-05-05T03:05:04.669Z,18.88
2023-05-05T03:05:34.649Z,18.94
2023-05-05T03:06:04.651Z,18.96
2023-05-05T03:06:34.658Z,18.9
2023-05-05T03:07:04.650Z,18.79
2023-05-05T03:07:34.653Z,18.74
2023-05-05T03:08:04.648Z,18.64
2023-05-05T03:08:34.645Z,18.64
2023-05-05T03:09:04.659Z,18.65
2023-05-05T03:09:34.647Z,18.7
2023-05-05T03:10:04.646Z,18.63
2023-05-05T03:10:34.645Z,18.59
2023-05-05T03:11:04.657Z,18.67
2023-05-05T03:11:34.651Z,18.68
2023-05-05T03:12:04.659Z,18.7
2023-05-05T03:12:34.684Z,18.71
2023-05-05T03:13:04.728Z,18.82
2023-05-05T03:13:34.640Z,19
2023-05-05T03:14:04.648Z,19.15
2023-05-05T03:14:34.651Z,19.07
2023-05-05T03:15:04.664Z,18.99
2023-05-05T03:15:34.644Z,18.79
2023-05-05T03:16:04.663Z,18.71
2023-05-05T03:16:34.704Z,18.62
2023-05-05T03:17:04.654Z,18.62
2023-05-05T03:17:34.684Z,18.58
2023-05-05T03:18:04.706Z,18.57
2023-05-05T03:18:34.657Z,18.57
2023-05-05T03:19:04.669Z,18.51
2023-05-05T03:19:34.644Z,18.49
2023-05-05T03:20:04.685Z,18.57
2023-05-05T03:20:34.648Z,18.71
2023-05-05T03:21:04.647Z,18.84
2023-05-05T03:21:34.652Z,18.9
2023-05-05T03:22:04.651Z,18.94
2023-05-05T03:22:34.653Z,19.03
2023-05-05T03:23:04.656Z,19.15
2023-05-05T03:23:34.650Z,19.28
2023-05-05T03:24:04.653Z,19.4
2023-05-05T03:24:34.659Z,19.55
2023-05-05T03:25:04.667Z,19.74
2023-05-05T03:25:34.651Z,20
2023-05-05T03:26:04.662Z,20.22
2023-05-05T03:26:34.648Z,20.36
2023-05-05T03:27:04.647Z,20.53
2023-05-05T03:27:34.657Z,20.63
2023-05-05T03:28:04.653Z,20.71
2023-05-05T03:28:34.656Z,20.75
2023-05-05T03:29:04.656Z,20.77
2023-05-05T03:29:34.663Z,20.84
2023-05-05T03:30:04.678Z,20.88
2023-05-05T03:30:34.649Z,20.95
2023-05-05T03:31:04.652Z,20.85
2023-05-05T03:31:34.677Z,20.78
2023-05-05T03:32:04.791Z,20.8
2023-05-05T03:32:34.678Z,20.79
2023-05-05T03:33:04.717Z,20.93
2023-05-05T03:33:34.650Z,21.09
2023-05-05T03:34:04.647Z,21.35
2023-05-05T03:34:34.650Z,21.57
2023-05-05T03:35:04.653Z,21.79
2023-05-05T03:35:34.646Z,21.95
2023-05-05T03:36:04.682Z,22.08
2023-05-05T03:36:34.655Z,22.13
2023-05-05T03:37:04.660Z,22.28
2023-05-05T03:37:34.661Z,22.77
2023-05-05T03:38:04.669Z,23.46
2023-05-05T03:38:34.731Z,24.34
2023-05-05T03:39:04.656Z,25.09
2023-05-05T03:39:34.649Z,25.92
2023-05-05T03:40:04.664Z,26.87
2023-05-05T03:40:43.607Z,27.78
2023-05-05T03:41:05.751Z,28.64
2023-05-05T03:41:34.649Z,29.06
2023-05-05T03:42:04.755Z,29.08
2023-05-05T03:42:34.654Z,29.1
2023-05-05T03:43:04.657Z,29.37
2023-05-05T03:43:34.667Z,29.79
2023-05-05T03:44:04.651Z,29.75
2023-05-05T03:44:34.659Z,29.18
2023-05-05T03:45:04.649Z,28.82
2023-05-05T03:45:34.736Z,28.25
2023-05-05T03:46:04.732Z,28.08
2023-05-05T03:46:34.653Z,28.24
2023-05-05T03:47:04.662Z,28.63
2023-05-05T03:47:34.673Z,29.25
2023-05-05T03:48:04.725Z,29.36
2023-05-05T03:48:34.654Z,29.37
2023-05-05T03:49:04.666Z,29.32
2023-05-05T03:49:34.653Z,29.39
2023-05-05T03:50:04.679Z,29.45
2023-05-05T03:50:34.669Z,29.63
2023-05-05T03:51:04.650Z,29.55
2023-05-05T03:51:34.664Z,29.46
2023-05-05T03:52:04.660Z,29.9
2023-05-05T03:52:34.653Z,30.55
2023-05-05T03:53:04.667Z,31.08
2023-05-05T03:53:34.665Z,31.06
2023-05-05T03:54:04.660Z,31.01
2023-05-05T03:54:34.659Z,30.66
2023-05-05T03:55:04.655Z,30.33
2023-05-05T03:55:34.667Z,30.09
2023-05-05T03:56:04.659Z,30.06
2023-05-05T03:56:34.670Z,29.64
2023-05-05T03:57:04.662Z,29.15
2023-05-05T03:57:34.668Z,28.87
2023-05-05T03:58:04.663Z,28.71
2023-05-05T03:58:34.674Z,28.18
2023-05-05T03:59:04.658Z,27.57
2023-05-05T03:59:34.663Z,27.41
2023-05-05T04:00:04.667Z,27.72
2023-05-05T04:00:34.671Z,28.3
2023-05-05T04:01:04.660Z,28.83
2023-05-05T04:01:34.665Z,28.8
2023-05-05T04:02:04.688Z,28.9
2023-05-05T04:02:34.740Z,29.17
2023-05-05T04:03:04.925Z,29.35
2023-05-05T04:03:34.736Z,29.65
2023-05-05T04:04:04.704Z,29.61
2023-05-05T04:04:34.788Z,29.29
2023-05-05T04:05:04.667Z,28.97
2023-05-05T04:05:34.731Z,28.59
2023-05-05T04:06:04.666Z,28.45
2023-05-05T04:06:34.662Z,28.31
2023-05-05T04:07:04.668Z,28.06
2023-05-05T04:07:34.664Z,27.91
2023-05-05T04:08:04.674Z,27.64
2023-05-05T04:08:34.669Z,27.45
2023-05-05T04:09:04.670Z,27.34
2023-05-05T04:09:34.668Z,27.47
2023-05-05T04:10:04.756Z,27.52
2023-05-05T04:10:34.674Z,27.71
2023-05-05T04:11:04.672Z,27.62
2023-05-05T04:11:34.671Z,27.34
2023-05-05T04:12:04.677Z,27.27
2023-05-05T04:12:34.688Z,27.13
2023-05-05T04:13:04.765Z,26.92
2023-05-05T04:13:34.672Z,26.47
2023-05-05T04:14:04.669Z,25.98
2023-05-05T04:14:34.670Z,25.38
2023-05-05T04:15:04.701Z,24.78
2023-05-05T04:15:34.747Z,24.25
2023-05-05T04:16:04.718Z,23.95
2023-05-05T04:16:34.686Z,23.75
2023-05-05T04:17:04.670Z,23.78
2023-05-05T04:17:34.685Z,23.8
2023-05-05T04:18:04.718Z,23.45
2023-05-05T04:18:34.701Z,23.08
2023-05-05T04:19:04.671Z,22.86
2023-05-05T04:19:34.724Z,22.62
2023-05-05T04:20:04.732Z,22.51
2023-05-05T04:20:34.674Z,22.43
2023-05-05T04:21:04.692Z,22.41
2023-05-05T04:21:34.678Z,22.48
2023-05-05T04:22:04.672Z,22.59
2023-05-05T04:22:34.680Z,22.76
2023-05-05T04:23:04.687Z,22.94
2023-05-05T04:23:34.689Z,23.11
2023-05-05T04:24:04.684Z,23.14
2023-05-05T04:24:34.669Z,23.39
2023-05-05T04:25:04.679Z,23.67
2023-05-05T04:25:34.671Z,24.14
2023-05-05T04:26:04.674Z,24.66
2023-05-05T04:26:34.695Z,25.19
2023-05-05T04:27:04.670Z,25.7
2023-05-05T04:27:34.713Z,26.12
2023-05-05T04:28:04.680Z,26.43
2023-05-05T04:28:34.696Z,26.6
2023-05-05T04:29:04.676Z,26.77
2023-05-05T04:29:34.676Z,27.05
2023-05-05T04:30:04.683Z,27.02
2023-05-05T04:30:34.677Z,27.29
2023-05-05T04:31:04.695Z,27.63
2023-05-05T04:31:34.709Z,27.77
2023-05-05T04:32:04.676Z,27.42
2023-05-05T04:32:34.729Z,27.04
2023-05-05T04:33:04.677Z,26.65
2023-05-05T04:33:34.678Z,26.41
2023-05-05T04:34:04.673Z,26.48
2023-05-05T04:34:34.674Z,26.76
2023-05-05T04:35:04.679Z,27.24
2023-05-05T04:35:34.673Z,27.76
2023-05-05T04:36:04.675Z,27.71
2023-05-05T04:36:34.670Z,27.44
2023-05-05T04:37:04.679Z,27.3
2023-05-05T04:37:34.676Z,27.21
2023-05-05T04:38:04.694Z,26.96
2023-05-05T04:38:34.707Z,26.72
2023-05-05T04:39:04.712Z,26.63
2023-05-05T04:39:34.677Z,26.48
2023-05-05T04:40:04.682Z,26.12
2023-05-05T04:40:34.696Z,25.65
2023-05-05T04:41:04.683Z,25.3
2023-05-05T04:41:34.684Z,25.23
2023-05-05T04:42:04.704Z,25.36
2023-05-05T04:42:34.684Z,25.41
2023-05-05T04:43:04.679Z,25.31
2023-05-05T04:43:34.693Z,25.3
2023-05-05T04:44:04.690Z,25.13
2023-05-05T04:44:34.675Z,24.9
2023-05-05T04:45:04.679Z,24.53
2023-05-05T04:45:34.687Z,24.24
2023-05-05T04:46:04.710Z,24.03
2023-05-05T04:46:34.788Z,23.86
2023-05-05T04:47:04.684Z,23.9
2023-05-05T04:47:34.701Z,24.02
2023-05-05T04:48:04.702Z,24.33
2023-05-05T04:48:34.697Z,24.68
2023-05-05T04:49:04.692Z,25
2023-05-05T04:49:34.689Z,25.2
2023-05-05T04:50:04.683Z,25.36
2023-05-05T04:50:34.681Z,25.5
2023-05-05T04:51:04.693Z,25.57
2023-05-05T04:51:34.688Z,25.65
2023-05-05T04:52:04.684Z,25.75
2023-05-05T04:52:34.679Z,25.74
2023-05-05T04:53:04.682Z,25.65
2023-05-05T04:53:34.684Z,25.53
2023-05-05T04:54:04.682Z,25.31
2023-05-05T04:54:34.683Z,25.26
2023-05-05T04:55:04.702Z,25.05
2023-05-05T04:55:34.682Z,24.95
2023-05-05T04:56:04.682Z,24.94
2023-05-05T04:56:34.687Z,24.96
2023-05-05T04:57:04.689Z,24.97
2023-05-05T04:57:34.687Z,24.97
2023-05-05T04:58:04.681Z,25.05
2023-05-05T04:58:34.693Z,25.17
2023-05-05T04:59:04.692Z,25.23
2023-05-05T04:59:34.684Z,25.27
2023-05-05T05:00:04.691Z,25.35
2023-05-05T05:00:34.688Z,25.49
2023-05-05T05:01:04.682Z,25.75
2023-05-05T05:01:36.918Z,25.97
2023-05-05T05:02:05.640Z,25.91
2023-05-05T05:02:34.734Z,25.72
2023-05-05T05:03:04.799Z,25.53
2023-05-05T05:03:34.745Z,25.24
2023-05-05T05:04:04.913Z,24.87
2023-05-05T05:04:34.680Z,24.52
2023-05-05T05:05:04.685Z,24.37
2023-05-05T05:05:34.687Z,24.45
2023-05-05T05:06:04.684Z,24.52
2023-05-05T05:06:34.679Z,24.62
2023-05-05T05:07:04.696Z,24.64
2023-05-05T05:07:34.684Z,24.63
2023-05-05T05:08:04.686Z,24.59
2023-05-05T05:08:34.682Z,24.58
2023-05-05T05:09:04.690Z,24.48
2023-05-05T05:09:34.697Z,24.25
2023-05-05T05:10:04.700Z,23.98
2023-05-05T05:10:34.691Z,24.03
2023-05-05T05:11:04.690Z,24.22
2023-05-05T05:11:34.695Z,24.5
2023-05-05T05:12:04.686Z,24.38
2023-05-05T05:12:34.729Z,24.53
2023-05-05T05:13:04.772Z,24.8
2023-05-05T05:13:34.690Z,25.16
2023-05-05T05:14:04.684Z,25.59
2023-05-05T05:14:34.690Z,26.1
2023-05-05T05:15:04.686Z,26.54
2023-05-05T05:15:34.688Z,26.74
2023-05-05T05:16:04.710Z,26.76
2023-05-05T05:16:34.697Z,26.96
2023-05-05T05:17:04.693Z,27.17
2023-05-05T05:17:34.727Z,27.42
2023-05-05T05:18:04.738Z,27.67
2023-05-05T05:18:34.698Z,27.83
2023-05-05T05:19:04.688Z,27.92
2023-05-05T05:19:34.689Z,27.84
2023-05-05T05:20:04.700Z,27.9
2023-05-05T05:20:34.710Z,28.08
2023-05-05T05:21:04.690Z,28.59
2023-05-05T05:21:34.692Z,28.92
2023-05-05T05:22:04.716Z,29.24
2023-05-05T05:22:34.691Z,29.77
2023-05-05T05:23:04.698Z,29.91
2023-05-05T05:23:34.704Z,30.35
2023-05-05T05:24:04.692Z,30.76
2023-05-05T05:24:34.701Z,30.99
2023-05-05T05:25:04.693Z,31.17
2023-05-05T05:25:34.718Z,31.18
2023-05-05T05:26:04.685Z,31.36
2023-05-05T05:26:34.710Z,31.97
2023-05-05T05:27:04.692Z,32.59
2023-05-05T05:27:34.691Z,33.28
2023-05-05T05:28:35.809Z,33.4
2023-05-05T05:29:04.691Z,33.79
2023-05-05T05:29:34.692Z,34.35
2023-05-05T05:30:04.699Z,34.93
2023-05-05T05:30:34.738Z,35.59
2023-05-05T05:31:04.698Z,36.11
2023-05-05T05:31:34.766Z,36.73
2023-05-05T05:32:04.751Z,36.8
2023-05-05T05:32:34.808Z,36.65
2023-05-05T05:33:04.805Z,36.73
2023-05-05T05:33:34.700Z,37
2023-05-05T05:34:04.701Z,37.24
2023-05-05T05:34:34.705Z,37.37
2023-05-05T05:35:04.696Z,36.83
2023-05-05T05:35:34.707Z,36.68
2023-05-05T05:36:04.694Z,36.1
2023-05-05T05:36:34.703Z,35.11
2023-05-05T05:37:04.693Z,34.33
2023-05-05T05:37:34.719Z,33.84
2023-05-05T05:38:04.695Z,33.82
2023-05-05T05:38:34.695Z,33.59
2023-05-05T05:39:04.693Z,33.47
2023-05-05T05:39:34.707Z,33.67
2023-05-05T05:40:04.697Z,34.06
2023-05-05T05:40:34.691Z,34.57
2023-05-05T05:41:04.699Z,35
2023-05-05T05:41:34.705Z,34.97
2023-05-05T05:42:04.718Z,34.61
2023-05-05T05:42:34.697Z,34.43
2023-05-05T05:43:04.699Z,34.49
2023-05-05T05:43:34.694Z,34.7
2023-05-05T05:44:04.699Z,34.7
2023-05-05T05:44:34.705Z,34.76
2023-05-05T05:45:04.697Z,34.44
2023-05-05T05:45:34.696Z,34.03
2023-05-05T05:46:06.358Z,33.76
2023-05-05T05:46:35.745Z,33.19
2023-05-05T05:47:04.704Z,32.91
2023-05-05T05:47:34.769Z,32.93
2023-05-05T05:48:04.771Z,32.48
2023-05-05T05:48:34.705Z,32.16
2023-05-05T05:49:04.709Z,31.98
2023-05-05T05:49:34.755Z,31.72
2023-05-05T05:50:04.708Z,31.35
2023-05-05T05:50:34.714Z,31.47
2023-05-05T05:51:04.705Z,31.75
2023-05-05T05:51:34.699Z,32.14
2023-05-05T05:52:04.698Z,32.3
2023-05-05T05:52:34.704Z,31.99
2023-05-05T05:53:04.700Z,31.39
2023-05-05T05:53:34.704Z,30.8
2023-05-05T05:54:04.715Z,30.43
2023-05-05T05:54:34.699Z,30.46
2023-05-05T05:55:04.718Z,30.9
2023-05-05T05:55:34.704Z,31.2
2023-05-05T05:56:04.706Z,31.76
2023-05-05T05:56:34.709Z,31.52
2023-05-05T05:57:04.701Z,31.41
2023-05-05T05:57:34.713Z,31.46
2023-05-05T05:58:04.719Z,31.76
2023-05-05T05:58:34.725Z,31.7
2023-05-05T05:59:04.716Z,31.38
2023-05-05T05:59:34.706Z,31.12
2023-05-05T06:00:04.723Z,31.05
2023-05-05T06:00:34.701Z,30.95
2023-05-05T06:01:04.705Z,31.09
2023-05-05T06:01:34.709Z,31.22
2023-05-05T06:02:04.754Z,31.46
2023-05-05T06:02:34.729Z,31.88
2023-05-05T06:03:04.755Z,32.22
2023-05-05T06:03:34.867Z,32.72
2023-05-05T06:04:04.780Z,33.29
2023-05-05T06:04:34.766Z,33.05
2023-05-05T06:05:04.710Z,32.74
2023-05-05T06:05:34.706Z,32.85
2023-05-05T06:06:04.702Z,33.1
2023-05-05T06:06:34.723Z,33.27
2023-05-05T06:07:04.697Z,33.16
2023-05-05T06:07:34.700Z,33.4
2023-05-05T06:08:04.702Z,33.79
2023-05-05T06:08:34.699Z,33.9
2023-05-05T06:09:04.710Z,34.29
2023-05-05T06:09:34.713Z,34.01
2023-05-05T06:10:18.478Z,33.51
2023-05-05T06:10:35.756Z,33.08
2023-05-05T06:11:04.709Z,32.51
2023-05-05T06:11:34.705Z,32.23
2023-05-05T06:12:04.715Z,32.36
2023-05-05T06:12:34.721Z,32.72
2023-05-05T06:13:04.718Z,33.46
2023-05-05T06:13:34.705Z,34.06
2023-05-05T06:14:04.706Z,34.52
2023-05-05T06:14:34.737Z,34.27
2023-05-05T06:15:04.704Z,34.26
2023-05-05T06:15:34.708Z,34.22
2023-05-05T06:16:04.765Z,34.06
2023-05-05T06:16:34.733Z,34
2023-05-05T06:17:04.715Z,34.07
2023-05-05T06:17:34.724Z,34.23
2023-05-05T06:18:04.786Z,34.79
2023-05-05T06:18:34.711Z,35.45
2023-05-05T06:19:04.715Z,36.07
2023-05-05T06:19:34.710Z,36.58
2023-05-05T06:20:04.709Z,37.05
2023-05-05T06:20:34.710Z,36.47
2023-05-05T06:21:04.715Z,35.61
2023-05-05T06:21:34.729Z,34.66
2023-05-05T06:22:04.709Z,33.87
2023-05-05T06:22:34.707Z,33.09
2023-05-05T06:23:04.768Z,32.45
2023-05-05T06:23:34.710Z,31.73
2023-05-05T06:24:04.709Z,31.08
2023-05-05T06:24:34.715Z,30.72
2023-05-05T06:25:04.722Z,30.78
2023-05-05T06:25:34.716Z,30.89
2023-05-05T06:26:04.719Z,31.14
2023-05-05T06:26:34.713Z,31.33
2023-05-05T06:27:04.724Z,31.68
2023-05-05T06:27:34.730Z,32.52
2023-05-05T06:28:04.718Z,33.05